createdAt,value
2023-01-29T00:00:14.097Z,80.84
2023-01-29T00:02:42.576Z,81.14
2023-01-29T00:05:26.474Z,81.30
2023-01-29T00:07:56.329Z,81.39
2023-01-29T00:10:25.341Z,81.50
2023-01-29T00:12:54.012Z,81.47
2023-01-29T00:15:22.003Z,81.51
2023-01-29T00:17:50.351Z,81.28
2023-01-29T00:20:19.349Z,81.57
2023-01-29T00:22:47.967Z,81.80
2023-01-29T00:25:16.043Z,81.95
2023-01-29T00:27:44.841Z,81.98
2023-01-29T00:30:13.310Z,81.96
2023-01-29T00:32:41.643Z,82.04
2023-01-29T00:35:09.843Z,82.00
2023-01-29T00:37:38.287Z,81.95
2023-01-29T00:40:06.785Z,81.96
2023-01-29T00:42:53.861Z,82.31
2023-01-29T00:45:22.148Z,82.33
2023-01-29T00:47:50.631Z,82.42
2023-01-29T00:50:19.401Z,82.63
2023-01-29T00:52:49.805Z,82.38
2023-01-29T00:55:18.028Z,82.35
2023-01-29T00:57:47.330Z,82.12
2023-01-29T01:00:17.862Z,82.16
2023-01-29T01:03:05.308Z,82.30
2023-01-29T01:05:33.705Z,82.28
2023-01-29T01:08:02.643Z,82.28
2023-01-29T01:10:32.743Z,82.23
2023-01-29T01:13:05.346Z,82.11
2023-01-29T01:15:38.469Z,82.00
2023-01-29T01:18:06.498Z,81.92
2023-01-29T01:20:35.568Z,81.73
2023-01-29T01:23:04.638Z,81.79
2023-01-29T01:25:32.596Z,81.83
2023-01-29T01:28:03.859Z,81.83
2023-01-29T01:30:33.180Z,81.94
2023-01-29T01:33:02.005Z,82.10
2023-01-29T01:35:30.783Z,82.26
2023-01-29T01:38:01.257Z,82.21
2023-01-29T01:40:29.468Z,82.01
2023-01-29T01:42:58.621Z,82.12
2023-01-29T01:45:33.064Z,82.60
2023-01-29T01:48:16.562Z,83.01
2023-01-29T01:50:44.956Z,83.00
2023-01-29T01:53:14.758Z,83.24
2023-01-29T01:55:52.161Z,83.25
2023-01-29T01:58:24.203Z,83.28
2023-01-29T02:00:52.535Z,83.11
2023-01-29T02:03:39.643Z,83.23
2023-01-29T02:06:26.731Z,83.79
2023-01-29T02:09:35.377Z,83.69
2023-01-29T02:12:05.562Z,83.95
2023-01-29T02:14:39.102Z,83.98
2023-01-29T02:17:07.621Z,83.91
2023-01-29T02:19:40.327Z,83.64
2023-01-29T02:22:28.369Z,83.65
2023-01-29T02:25:01.244Z,83.89
2023-01-29T02:27:51.324Z,83.91
2023-01-29T02:31:01.023Z,83.79
2023-01-29T02:33:50.822Z,84.00
2023-01-29T02:36:30.509Z,84.28
2023-01-29T02:39:15.658Z,84.28
2023-01-29T02:42:22.283Z,84.22
2023-01-29T02:45:03.404Z,84.28
2023-01-29T02:47:53.305Z,84.37
2023-01-29T02:50:33.975Z,84.48
2023-01-29T02:53:09.574Z,84.71
2023-01-29T02:55:39.594Z,84.81
2023-01-29T02:58:20.793Z,84.60
2023-01-29T03:00:48.850Z,84.28
2023-01-29T03:03:22.244Z,84.08
2023-01-29T03:05:58.847Z,84.18
2023-01-29T03:08:43.497Z,84.28
2023-01-29T03:11:15.313Z,84.14
2023-01-29T03:14:02.867Z,84.53
2023-01-29T03:16:34.424Z,84.57
2023-01-29T03:19:42.958Z,84.19
2023-01-29T03:22:20.921Z,83.77
2023-01-29T03:25:07.962Z,84.00
2023-01-29T03:28:30.636Z,84.33
2023-01-29T03:31:20.683Z,84.44
2023-01-29T03:34:16.672Z,84.35
2023-01-29T03:37:07.798Z,84.52
2023-01-29T03:39:36.966Z,84.07
2023-01-29T03:42:22.096Z,83.97
2023-01-29T03:45:08.873Z,83.96
2023-01-29T03:48:00.845Z,84.44
2023-01-29T03:50:50.838Z,84.36
2023-01-29T03:53:54.274Z,84.19
2023-01-29T03:56:27.000Z,84.08
2023-01-29T03:59:04.570Z,83.78
2023-01-29T04:01:49.131Z,83.62
2023-01-29T04:04:20.596Z,83.73
2023-01-29T04:06:49.872Z,83.98
2023-01-29T04:09:30.452Z,83.90
2023-01-29T04:12:05.389Z,83.82
2023-01-29T04:14:33.707Z,83.53
2023-01-29T04:17:24.629Z,83.45
2023-01-29T04:20:02.153Z,83.15
2023-01-29T04:22:33.897Z,83.18
2023-01-29T04:25:18.353Z,83.40
2023-01-29T04:28:09.710Z,83.71
2023-01-29T04:30:47.423Z,83.63
2023-01-29T04:33:49.389Z,83.66
2023-01-29T04:37:02.687Z,83.17
2023-01-29T04:39:34.933Z,82.70
2023-01-29T04:42:14.523Z,82.29
2023-01-29T04:44:44.791Z,82.29
2023-01-29T04:47:18.937Z,82.34
2023-01-29T04:49:53.240Z,82.07
2023-01-29T04:52:39.452Z,82.09
2023-01-29T04:55:15.663Z,82.09
2023-01-29T04:58:05.819Z,82.31
2023-01-29T05:00:40.071Z,82.07
2023-01-29T05:03:09.837Z,82.25
2023-01-29T05:05:39.987Z,82.39
2023-01-29T05:08:08.280Z,82.44
2023-01-29T05:10:37.121Z,82.52
2023-01-29T05:13:06.677Z,82.46
2023-01-29T05:15:58.017Z,82.46
2023-01-29T05:18:26.227Z,82.78
2023-01-29T05:20:54.463Z,82.54
2023-01-29T05:23:22.733Z,82.16
2023-01-29T05:25:51.733Z,82.08
2023-01-29T05:28:21.312Z,82.38
2023-01-29T05:30:51.317Z,82.55
2023-01-29T05:33:21.063Z,82.45
2023-01-29T05:35:50.257Z,82.13
2023-01-29T05:38:18.971Z,82.11
2023-01-29T05:40:47.337Z,82.36
2023-01-29T05:43:24.836Z,82.13
2023-01-29T05:45:58.099Z,81.71
2023-01-29T05:48:29.157Z,81.64
2023-01-29T05:51:01.842Z,81.98
2023-01-29T05:53:30.359Z,82.33
2023-01-29T05:56:01.100Z,82.37
2023-01-29T05:58:35.317Z,82.51
2023-01-29T06:01:18.059Z,82.65
2023-01-29T06:03:46.967Z,82.90
2023-01-29T06:06:15.944Z,82.73
2023-01-29T06:08:43.983Z,82.89
2023-01-29T06:11:13.031Z,83.17
2023-01-29T06:13:41.450Z,83.31
2023-01-29T06:16:10.167Z,83.51
2023-01-29T06:18:38.336Z,83.92
2023-01-29T06:21:08.195Z,84.06
2023-01-29T06:23:37.348Z,83.91
2023-01-29T06:26:13.467Z,83.71
2023-01-29T06:28:41.741Z,84.11
2023-01-29T06:31:37.783Z,84.20
2023-01-29T06:33:58.306Z,84.57
2023-01-29T06:36:26.349Z,85.07
2023-01-29T06:38:59.023Z,85.03
2023-01-29T06:41:27.612Z,84.83
2023-01-29T06:43:55.852Z,84.63
2023-01-29T06:46:23.832Z,84.60
2023-01-29T06:48:52.083Z,84.76
2023-01-29T06:51:23.725Z,84.66
2023-01-29T06:53:51.763Z,84.85
2023-01-29T06:56:19.863Z,84.97
2023-01-29T06:58:48.320Z,84.67
2023-01-29T07:01:33.321Z,84.45
2023-01-29T07:04:03.819Z,84.69
2023-01-29T07:06:31.982Z,84.64
2023-01-29T07:09:00.829Z,84.87
2023-01-29T07:11:35.538Z,85.16
2023-01-29T07:14:03.888Z,85.13
2023-01-29T07:16:32.481Z,85.26
2023-01-29T07:19:00.371Z,85.13
2023-01-29T07:21:29.478Z,85.04
2023-01-29T07:23:58.108Z,84.89
2023-01-29T07:26:26.993Z,84.69
2023-01-29T07:28:55.751Z,84.95
2023-01-29T07:31:27.691Z,85.09
2023-01-29T07:33:56.031Z,84.80
2023-01-29T07:36:24.309Z,84.44
2023-01-29T07:38:52.750Z,84.28
2023-01-29T07:43:46.955Z,84.76
2023-01-29T07:46:13.557Z,84.90
2023-01-29T07:48:43.607Z,84.82
2023-01-29T07:51:10.142Z,84.74
2023-01-29T07:53:36.966Z,84.55
2023-01-29T07:56:03.899Z,84.15
2023-01-29T07:58:31.509Z,84.02
2023-01-29T08:00:58.259Z,83.82
2023-01-29T08:03:24.994Z,83.92
2023-01-29T08:05:52.751Z,84.17
2023-01-29T08:08:19.766Z,84.52
2023-01-29T08:10:46.712Z,84.64
2023-01-29T08:13:13.476Z,83.98
2023-01-29T08:15:43.583Z,83.82
2023-01-29T08:18:11.450Z,83.86
2023-01-29T08:20:38.052Z,84.07
2023-01-29T08:23:12.786Z,84.13
2023-01-29T08:25:39.707Z,84.35
2023-01-29T08:28:06.325Z,84.25
2023-01-29T08:30:34.195Z,83.87
2023-01-29T08:33:01.004Z,83.58
2023-01-29T08:35:27.967Z,83.24
2023-01-29T08:38:02.515Z,83.62
2023-01-29T08:40:33.749Z,83.71
2023-01-29T08:43:02.580Z,83.30
2023-01-29T08:45:32.245Z,83.07
2023-01-29T08:47:59.207Z,83.15
2023-01-29T08:50:26.082Z,83.17
2023-01-29T08:52:56.456Z,82.97
2023-01-29T08:55:23.369Z,82.92
2023-01-29T08:57:49.808Z,82.77
2023-01-29T09:00:17.008Z,82.85
2023-01-29T09:02:43.762Z,83.15
2023-01-29T09:05:10.672Z,83.08
2023-01-29T09:07:37.391Z,83.00
2023-01-29T09:10:04.654Z,83.01
2023-01-29T09:12:31.389Z,82.88
2023-01-29T09:14:57.951Z,82.62
2023-01-29T09:17:25.062Z,82.53
2023-01-29T09:19:52.603Z,81.97
2023-01-29T09:22:19.858Z,81.93
2023-01-29T09:24:46.663Z,81.79
2023-01-29T09:27:13.273Z,82.15
2023-01-29T09:29:40.113Z,82.25
2023-01-29T09:32:06.903Z,82.07
2023-01-29T09:34:37.777Z,82.13
2023-01-29T09:37:04.427Z,81.68
2023-01-29T09:39:31.352Z,81.42
2023-01-29T09:42:03.571Z,81.62
2023-01-29T09:44:50.673Z,81.54
2023-01-29T09:47:18.547Z,81.82
2023-01-29T09:49:49.090Z,81.88
2023-01-29T09:52:18.573Z,81.94
2023-01-29T09:54:55.301Z,81.44
2023-01-29T09:57:25.120Z,80.60
2023-01-29T09:59:51.916Z,80.24
2023-01-29T10:02:53.503Z,80.07
2023-01-29T10:05:41.323Z,79.87
2023-01-29T10:08:15.677Z,80.15
2023-01-29T10:10:48.104Z,80.06
2023-01-29T10:13:34.389Z,80.36
2023-01-29T10:16:23.058Z,80.57
2023-01-29T10:19:15.543Z,80.17
2023-01-29T10:21:54.425Z,79.85
2023-01-29T10:24:30.051Z,79.56
2023-01-29T10:26:56.635Z,79.50
2023-01-29T10:29:23.415Z,79.89
2023-01-29T10:31:56.635Z,79.92
2023-01-29T10:34:29.803Z,79.82
2023-01-29T10:36:56.678Z,79.56
2023-01-29T10:39:24.865Z,79.63
2023-01-29T10:42:05.606Z,79.98
2023-01-29T10:44:40.288Z,79.92
2023-01-29T10:47:16.469Z,79.93
2023-01-29T10:50:16.077Z,79.93
2023-01-29T10:53:02.716Z,80.21
2023-01-29T10:55:46.900Z,79.91
2023-01-29T10:58:16.184Z,79.38
2023-01-29T11:00:42.905Z,79.03
2023-01-29T11:03:26.812Z,79.23
2023-01-29T11:06:13.225Z,79.19
2023-01-29T11:08:46.000Z,78.64
2023-01-29T11:11:14.555Z,78.34
2023-01-29T11:14:06.716Z,78.33
2023-01-29T11:16:42.053Z,78.25
2023-01-29T11:19:09.018Z,77.85
2023-01-29T11:22:01.175Z,77.53
2023-01-29T11:24:29.229Z,77.66
2023-01-29T11:26:57.732Z,77.85
2023-01-29T11:29:38.952Z,77.72
2023-01-29T11:32:13.718Z,77.79
2023-01-29T11:35:18.906Z,78.05
2023-01-29T11:37:46.612Z,77.89
2023-01-29T11:40:20.105Z,77.84
2023-01-29T11:42:47.205Z,78.45
2023-01-29T11:45:27.110Z,78.59
2023-01-29T11:47:54.561Z,78.58
2023-01-29T11:50:29.540Z,78.53
2023-01-29T11:52:56.325Z,78.71
2023-01-29T11:55:25.200Z,78.74
2023-01-29T11:58:06.088Z,78.90
2023-01-29T12:00:34.857Z,78.64
2023-01-29T12:03:23.837Z,78.76
2023-01-29T12:06:02.050Z,78.99
2023-01-29T12:08:37.620Z,79.44
2023-01-29T12:11:37.182Z,79.62
2023-01-29T12:14:05.561Z,79.18
2023-01-29T12:16:35.716Z,79.09
2023-01-29T12:19:05.753Z,78.69
2023-01-29T12:21:36.798Z,78.28
2023-01-29T12:24:16.589Z,78.07
2023-01-29T12:26:50.281Z,77.41
2023-01-29T12:29:20.125Z,77.42
2023-01-29T12:31:52.961Z,77.35
2023-01-29T12:34:27.736Z,77.45
2023-01-29T12:37:22.693Z,77.44
2023-01-29T12:39:51.024Z,77.25
2023-01-29T12:42:20.279Z,77.16
2023-01-29T12:45:04.765Z,77.59
2023-01-29T12:47:32.010Z,77.98
2023-01-29T12:50:02.651Z,77.51
2023-01-29T12:52:38.557Z,77.50
2023-01-29T12:55:16.137Z,77.43
2023-01-29T12:58:02.282Z,77.38
2023-01-29T13:00:33.944Z,77.60
2023-01-29T13:03:12.888Z,77.45
2023-01-29T13:05:48.104Z,77.17
2023-01-29T13:08:21.032Z,77.04
2023-01-29T13:10:50.980Z,77.33
2023-01-29T13:13:32.545Z,77.59
2023-01-29T13:16:00.503Z,77.64
2023-01-29T13:18:42.678Z,77.57
2023-01-29T13:21:39.334Z,77.82
2023-01-29T13:24:16.124Z,78.19
2023-01-29T13:26:46.877Z,77.91
2023-01-29T13:29:21.075Z,77.54
2023-01-29T13:31:49.597Z,77.77
2023-01-29T13:34:19.906Z,78.16
2023-01-29T13:36:54.564Z,78.09
2023-01-29T13:39:37.031Z,77.86
2023-01-29T13:42:15.495Z,77.95
2023-01-29T13:44:43.091Z,77.34
2023-01-29T13:47:11.207Z,77.09
2023-01-29T13:49:40.975Z,77.10
2023-01-29T13:52:17.160Z,76.73
2023-01-29T13:55:00.509Z,76.73
2023-01-29T13:57:36.037Z,77.00
2023-01-29T14:00:04.441Z,77.00
2023-01-29T14:02:32.410Z,77.16
2023-01-29T14:05:28.568Z,76.95
2023-01-29T14:07:58.683Z,77.08
2023-01-29T14:10:27.030Z,77.18
2023-01-29T14:13:25.751Z,77.06
2023-01-29T14:15:58.906Z,76.97
2023-01-29T14:18:26.851Z,76.82
2023-01-29T14:20:57.768Z,76.56
2023-01-29T14:23:39.719Z,76.66
2023-01-29T14:26:22.933Z,76.86
2023-01-29T14:29:03.821Z,76.68
2023-01-29T14:31:40.884Z,76.59
2023-01-29T14:34:15.920Z,76.80
2023-01-29T14:36:43.247Z,76.66
2023-01-29T14:39:22.029Z,76.61
2023-01-29T14:41:49.675Z,76.67
2023-01-29T14:44:44.673Z,76.95
2023-01-29T14:47:42.649Z,76.98
2023-01-29T14:50:19.271Z,77.39
2023-01-29T14:52:46.995Z,77.65
2023-01-29T14:55:59.387Z,77.70
2023-01-29T14:58:26.826Z,77.79
2023-01-29T15:00:54.731Z,77.95
2023-01-29T15:03:31.538Z,77.89
2023-01-29T15:05:58.838Z,78.01
2023-01-29T15:08:38.491Z,78.25
2023-01-29T15:11:33.925Z,78.25
2023-01-29T15:14:37.340Z,78.42
2023-01-29T15:17:27.596Z,78.49
2023-01-29T15:19:57.467Z,78.31
2023-01-29T15:22:29.594Z,78.22
2023-01-29T15:25:09.948Z,78.35
2023-01-29T15:27:36.782Z,78.50
2023-01-29T15:30:07.738Z,78.33
2023-01-29T15:32:37.138Z,78.21
2023-01-29T15:35:10.215Z,78.07
2023-01-29T15:37:37.158Z,78.13
2023-01-29T15:40:06.561Z,77.76
2023-01-29T15:42:52.359Z,77.53
2023-01-29T15:45:32.401Z,77.58
2023-01-29T15:48:07.912Z,77.62
2023-01-29T15:50:36.242Z,77.64
2023-01-29T15:53:03.927Z,77.60
2023-01-29T15:55:30.626Z,77.61
2023-01-29T15:57:57.387Z,77.65
2023-01-29T16:00:26.679Z,77.73
2023-01-29T16:02:53.730Z,77.75
2023-01-29T16:05:23.481Z,77.40
2023-01-29T16:07:50.696Z,77.09
2023-01-29T16:10:22.210Z,77.13
2023-01-29T16:12:52.496Z,77.32
2023-01-29T16:15:39.655Z,77.13
2023-01-29T16:18:29.862Z,77.12
2023-01-29T16:20:58.437Z,76.89
2023-01-29T16:23:27.527Z,76.76
2023-01-29T16:26:02.332Z,76.68
2023-01-29T16:28:29.164Z,76.85
2023-01-29T16:31:00.687Z,76.89
2023-01-29T16:33:35.454Z,76.59
2023-01-29T16:36:11.056Z,76.27
2023-01-29T16:38:42.968Z,76.14
2023-01-29T16:41:26.003Z,76.02
2023-01-29T16:43:54.008Z,75.76
2023-01-29T16:46:25.494Z,75.93
2023-01-29T16:48:52.696Z,76.02
2023-01-29T16:51:28.097Z,75.79
2023-01-29T16:53:57.208Z,75.48
2023-01-29T16:56:24.342Z,75.25
2023-01-29T16:58:51.960Z,75.21
2023-01-29T17:01:19.209Z,74.83
2023-01-29T17:03:59.846Z,74.76
2023-01-29T17:06:26.895Z,74.78
2023-01-29T17:08:53.650Z,74.80
2023-01-29T17:11:33.061Z,74.76
2023-01-29T17:13:59.983Z,74.68
2023-01-29T17:16:36.715Z,74.45
2023-01-29T17:19:17.374Z,74.38
2023-01-29T17:21:45.095Z,74.11
2023-01-29T17:24:12.078Z,73.97
2023-01-29T17:26:39.040Z,73.63
2023-01-29T17:29:15.343Z,73.12
2023-01-29T17:31:43.888Z,73.01
2023-01-29T17:34:13.583Z,72.99
2023-01-29T17:36:41.807Z,73.10
2023-01-29T17:39:18.458Z,73.05
2023-01-29T17:41:55.651Z,73.00
2023-01-29T17:44:22.860Z,72.98
2023-01-29T17:46:49.484Z,73.03
2023-01-29T17:49:27.705Z,73.16
2023-01-29T17:51:55.467Z,73.04
2023-01-29T17:54:22.516Z,72.90
2023-01-29T17:56:49.829Z,72.97
2023-01-29T17:59:18.567Z,73.07
2023-01-29T18:01:45.281Z,72.86
2023-01-29T18:04:11.883Z,73.25
2023-01-29T18:06:39.287Z,73.32
2023-01-29T18:09:06.889Z,73.38
2023-01-29T18:11:34.908Z,73.18
2023-01-29T18:14:13.712Z,72.82
2023-01-29T18:16:42.108Z,72.77
2023-01-29T18:19:18.032Z,72.78
2023-01-29T18:21:47.018Z,72.67
2023-01-29T18:24:13.561Z,72.76
2023-01-29T18:26:40.241Z,72.82
2023-01-29T18:29:07.304Z,72.81
2023-01-29T18:31:34.485Z,73.02
2023-01-29T18:34:02.996Z,73.19
2023-01-29T18:36:29.943Z,73.33
2023-01-29T18:38:56.883Z,73.27
2023-01-29T18:41:23.520Z,73.22
2023-01-29T18:43:52.447Z,73.08
2023-01-29T18:46:20.009Z,72.96
2023-01-29T18:48:47.439Z,72.87
2023-01-29T18:51:14.116Z,72.95
2023-01-29T18:53:44.140Z,72.87
2023-01-29T18:56:12.261Z,72.87
2023-01-29T18:58:39.763Z,73.16
2023-01-29T19:01:08.917Z,72.85
2023-01-29T19:03:35.969Z,72.77
2023-01-29T19:06:03.532Z,72.56
2023-01-29T19:08:32.244Z,72.55
2023-01-29T19:11:01.740Z,72.17
2023-01-29T19:13:31.391Z,71.82
2023-01-29T19:15:59.221Z,71.38
2023-01-29T19:18:27.182Z,71.29
2023-01-29T19:20:54.028Z,71.15
2023-01-29T19:23:21.748Z,70.99
2023-01-29T19:25:48.923Z,70.91
2023-01-29T19:28:15.567Z,70.38
2023-01-29T19:30:42.301Z,69.79
2023-01-29T19:33:10.676Z,69.55
2023-01-29T19:35:37.650Z,69.61
2023-01-29T19:38:04.268Z,69.70
2023-01-29T19:40:32.718Z,69.62
2023-01-29T19:42:59.537Z,69.75
2023-01-29T19:45:37.461Z,69.61
2023-01-29T19:48:14.420Z,69.82
2023-01-29T19:50:42.873Z,69.83
2023-01-29T19:53:09.415Z,69.43
2023-01-29T19:55:37.349Z,69.15
2023-01-29T19:58:04.111Z,68.69
2023-01-29T20:01:37.902Z,68.80
2023-01-29T20:04:07.530Z,68.51
2023-01-29T20:06:36.614Z,68.49
2023-01-29T20:09:04.902Z,68.38
2023-01-29T20:11:35.079Z,68.15
2023-01-29T20:14:03.724Z,68.10
2023-01-29T20:16:31.995Z,67.96
2023-01-29T20:19:13.921Z,67.63
2023-01-29T20:21:46.635Z,67.50
2023-01-29T20:24:14.813Z,67.50
2023-01-29T20:26:43.982Z,67.66
2023-01-29T20:29:13.567Z,67.66
2023-01-29T20:31:41.655Z,67.43
2023-01-29T20:34:09.861Z,67.54
2023-01-29T20:36:38.856Z,67.61
2023-01-29T20:39:06.946Z,67.74
2023-01-29T20:41:35.425Z,67.64
2023-01-29T20:44:04.010Z,67.40
2023-01-29T20:46:32.609Z,67.51
2023-01-29T20:49:01.862Z,67.52
2023-01-29T20:51:31.041Z,67.76
2023-01-29T20:54:00.008Z,67.72
2023-01-29T20:56:34.252Z,67.94
2023-01-29T20:59:06.132Z,67.90
2023-01-29T21:01:34.169Z,67.99
2023-01-29T21:04:02.815Z,67.83
2023-01-29T21:06:30.993Z,68.08
2023-01-29T21:09:00.855Z,68.06
2023-01-29T21:11:29.511Z,68.15
2023-01-29T21:13:57.944Z,68.17
2023-01-29T21:16:28.775Z,68.13
2023-01-29T21:18:58.003Z,68.23
2023-01-29T21:21:26.848Z,68.38
2023-01-29T21:23:55.390Z,68.53
2023-01-29T21:26:23.965Z,68.52
2023-01-29T21:28:52.452Z,68.45
2023-01-29T21:31:20.842Z,68.42
2023-01-29T21:33:49.021Z,68.40
2023-01-29T21:36:17.226Z,68.28
2023-01-29T21:38:45.257Z,68.21
2023-01-29T21:41:13.407Z,68.14
2023-01-29T21:43:41.751Z,68.04
2023-01-29T21:46:12.152Z,67.93
2023-01-29T21:48:40.400Z,67.94
2023-01-29T21:51:08.371Z,67.81
2023-01-29T21:53:36.920Z,67.79
2023-01-29T21:56:05.405Z,67.74
2023-01-29T21:58:33.584Z,67.71
2023-01-29T22:01:37.979Z,67.49
2023-01-29T22:04:08.974Z,67.44
2023-01-29T22:06:37.109Z,67.46
2023-01-29T22:09:07.490Z,67.64
2023-01-29T22:11:36.198Z,67.45
2023-01-29T22:14:04.115Z,67.53
2023-01-29T22:16:32.431Z,67.58
2023-01-29T22:19:00.686Z,67.64
2023-01-29T22:21:28.763Z,67.50
2023-01-29T22:23:56.734Z,67.31
2023-01-29T22:26:25.045Z,67.49
2023-01-29T22:28:53.029Z,67.60
2023-01-29T22:31:20.993Z,67.63
2023-01-29T22:33:49.049Z,67.57
2023-01-29T22:36:17.084Z,67.43
2023-01-29T22:38:46.107Z,67.46
2023-01-29T22:41:14.600Z,67.35
2023-01-29T22:43:44.171Z,67.32
2023-01-29T22:46:12.316Z,67.39
2023-01-29T22:48:42.203Z,67.28
2023-01-29T22:51:10.719Z,67.48
2023-01-29T22:53:44.198Z,67.48
2023-01-29T22:56:12.809Z,67.49
2023-01-29T22:58:41.323Z,67.44
2023-01-29T23:01:09.491Z,67.54
2023-01-29T23:03:37.678Z,67.55
2023-01-29T23:06:05.743Z,67.44
2023-01-29T23:08:33.810Z,67.51
2023-01-29T23:11:14.715Z,67.55
2023-01-29T23:13:48.503Z,67.30
2023-01-29T23:16:17.215Z,67.44
2023-01-29T23:18:45.442Z,67.38
2023-01-29T23:21:13.490Z,67.41
2023-01-29T23:23:43.115Z,67.35
2023-01-29T23:26:32.100Z,67.40
2023-01-29T23:29:00.172Z,67.51
2023-01-29T23:31:28.679Z,67.49
2023-01-29T23:33:57.853Z,67.63
2023-01-29T23:36:27.822Z,67.61
2023-01-29T23:38:56.460Z,67.69
2023-01-29T23:41:24.785Z,67.83
2023-01-29T23:43:54.497Z,68.00
2023-01-29T23:46:22.510Z,68.01
2023-01-29T23:48:50.415Z,67.96
2023-01-29T23:51:19.401Z,67.97
2023-01-29T23:53:47.383Z,68.02
2023-01-29T23:56:15.263Z,68.08
2023-01-29T23:58:47.636Z,68.07
